Historyczne dane pomiarowe

Dodano dane terminowe – wersja testowa.

Dane z okresu 1951-2019

Wersja bazy: 1.34 [2019-03-16, lista zmian], aktualizacja planowana na 2019-04-15

Dane meteo z obszaru Polski uzyskane na podstawie danych udostępnionych przez Instytut Meteorologii i Gospodarki Wodnej – Państwowy Instytut Badawczy.

 

Wybierz Datę:    

       

TemperaturaWilgotnośćWiatrCiśnienieOpadyŚniegCzas trwania zjawisk
 Stacja t tx tn tng RH VA  wxwx mslp ppp RRR   cm mm wxwxwxwxwxwxwx
1956-11-09 -6.1 -3.2-10.5-14.2 73.0- 5.7 2.0---- 0.0-- 2---------
1956-11-08 -5.9 -0.9 -8.3 -8.5 77.0- 0.0 4.0---- 0.0-- 2---------
1956-11-07 -3.5 0.5 -5.1 -0.9 69.8- 2.3 4.0---- 0.0-- 2---------
1956-11-06 0.4 2.6 -0.3 -2.7 81.8- 7.3 6.3---- 0.8-- 4---------
1956-11-05 0.5 3.6 -5.5 -6.0 89.8- 8.0 3.3---- 1.8-- 5---------
1956-11-04 -1.8 1.2 -3.4 -3.9 90.5- 5.7 3.3---- 0.0-- 6---------
1956-11-03 -1.5 0.6 -3.1 -7.6 88.8- 8.0 1.0---- 0.0-- 6---------
1956-11-02 -1.1 3.4 -3.8 -8.8 84.5- 2.0 2.0---- 0.0-- 6---------
1956-11-01 -0.6 1.1 -3.5 -3.5 95.0- 8.0 6.7---- 7.8-- 1---------
1956-10-31 -4.8 -2.2-11.2-13.2 75.0- 3.0 2.7---- 1.0------------
1956-10-30 -5.0 -0.5 -7.3 -3.6 83.0- 8.0 4.7---- 0.0------------
1956-10-29 0.4 6.6 -0.9 0.9 96.0- 8.0 5.0---- 0.0------------
1956-10-28 7.5 8.9 6.5 5.0 96.3- 8.0 7.0---- 19.2------------
1956-10-27 8.1 8.9 7.5 6.8 96.8- 8.0 3.0---- 0.0------------
1956-10-26 6.9 10.5 3.5 -0.5 98.5- 5.3 0.0---- 1.0------------
1956-10-25 10.8 18.4 6.7 4.2 86.3- 3.0 3.0---- 0.0------------
1956-10-24 10.2 12.5 7.5 6.3 89.8- 7.0 2.3---- 0.0------------
1956-10-23 9.6 10.7 8.9 8.4 82.0- 8.0 4.0---- 0.0------------
1956-10-22 10.7 12.8 9.9 8.6 80.5- 8.0 5.3---- 0.0------------
1956-10-21 11.0 12.7 7.3 5.8 91.0- 8.0 4.0---- 0.0------------
1956-10-20 8.4 11.5 5.6 2.8 89.8- 7.7 2.7---- 1.8------------
1956-10-19 9.1 12.3 7.7 8.2 95.8- 3.0 3.3---- 2.4------------
1956-10-18 7.9 10.6 1.1 -3.1 84.8- 7.0 3.7---- 0.0------------
1956-10-17 4.1 11.2 -1.6 -6.2 87.0- 4.0 1.3---- 0.0------------
1956-10-16 2.9 9.4 0.0 -0.9 86.3- 4.7 1.3---- 0.0------------
1956-10-15 5.4 9.8 3.9 1.5 91.5- 2.0 3.7---- 0.3------------
1956-10-14 6.2 9.6 4.0 3.1 86.0- 6.7 6.7---- 0.5------------
1956-10-13 9.0 10.8 8.4 7.2 87.3- 7.7 8.7---- 17.4------------
1956-10-12 9.8 12.5 7.9 7.0 82.5- 8.0 7.3---- 0.0------------
1956-10-11 7.4 9.6 2.9 1.7 91.5- 8.0 4.3---- 0.7------------
1956-10-10 3.0 8.7 -1.2 -7.5 85.5- 3.0 2.7---- 2.4------------
1956-10-09 5.6 9.1 1.3 -0.6 90.3- 6.7 6.3---- 0.8------------
1956-10-08 4.7 7.4 3.6 1.4 94.8- 5.0 2.7---- 1.1------------
1956-10-07 6.4 9.5 4.1 3.7 94.3- 7.7 9.3---- 20.9------------
1956-10-06 8.9 9.5 7.0 2.5 99.8- 2.7 1.0---- 37.8------------
1956-10-05 8.9 13.1 7.0 4.9 95.8- 5.3 2.3---- 3.9------------
1956-10-04 7.6 11.9 4.4 -0.7 95.5- 7.7 1.0---- 0.0------------
1956-10-03 13.6 18.4 11.4 6.0 86.0- 8.0 4.7---- 1.0------------
1956-10-02 16.7 23.2 8.8 5.2 86.0- 0.0 2.7---- 0.0------------
1956-10-01 13.4 19.2 3.1 -1.2 84.5- 4.0 3.0---- 0.0------------
1956-09-30 12.0 17.5 9.0 5.7 86.0- 3.0 4.0---- 0.0------------
1956-09-29 16.1 21.2 12.3 9.9 73.8- 6.0 6.0---- 0.0------------
1956-09-28 13.8 20.8 7.6 3.1 88.8- 1.3 2.7---- 0.0------------
1956-09-27 12.9 21.6 3.8 -0.2 75.3- 1.7 1.3---- 0.0------------
1956-09-26 9.4 21.1 1.0 -4.9 85.5- 0.0 1.7---- 0.0------------
1956-09-25 6.5 16.7 -1.8 -7.0 79.0- 2.0 1.7---- 0.0------------
1956-09-24 4.4 13.4 -1.9 -2.6 83.8- 0.3 0.3---- 0.0------------
1956-09-23 5.2 13.6 0.8 -4.8 81.3- 2.3 1.7---- 0.0------------
1956-09-22 10.0 16.0 2.9 -1.4 88.0- 4.0 0.7---- 0.0------------
1956-09-21 8.7 17.7 4.0 -1.7 86.0- 1.3 0.7---- 0.0------------
1956-09-20 9.9 15.8 2.2 -1.9 79.8- 6.7 0.7---- 0.0------------
1956-09-19 7.7 14.0 3.6 -1.6 93.5- 5.3 1.7---- 0.0------------
1956-09-18 7.8 13.0 6.1 4.9 84.3- 4.0 2.0---- 0.0------------
1956-09-17 8.0 13.3 5.4 2.8 79.0- 6.0 3.7---- 0.9------------
1956-09-16 9.6 13.7 4.6 0.6 78.3- 7.0 4.7---- 0.0------------
1956-09-15 9.4 15.2 2.2 -1.6 83.0- 4.3 3.3---- 0.0------------
1956-09-14 7.3 14.6 4.6 3.1 85.0- 3.0 1.3---- 0.0------------
1956-09-13 9.5 13.2 5.4 1.1 90.0- 6.7 2.0---- 1.8------------
1956-09-12 11.0 13.4 9.7 10.2 95.0- 7.7 3.3---- 21.2------------
1956-09-11 11.4 13.4 9.4 5.2 94.3- 8.0 2.3---- 2.8------------
241.7 ms

 

Źródłem pochodzenia danych jest Instytut Meteorologii i Gospodarki Wodnej – Państwowy Instytut Badawczy. Dane Instytutu Meteorologii i Gospodarki Wodnej – Państwowego Instytutu Badawczego zostały przetworzone.

Dane źródłowe można odnaleźć na stronie https://dane.imgw.pl